Time;durP1;ratioP1;P1;durP2;ratioP2;P2;SDS_P1;SDS_P2;PMS_P1;PMS_P2;Temp;Humidity;BMP_temperature;BMP_pressure;BME280_temperature;BME280_humidity;BME280_pressure;Samples;Min_cycle;Max_cycle;Signal;HPM_P1;HPM_P2
2021/06/08 00:00:21;;;;;;;2.28;2.08;;;23.50;56.90;;;;;;5052042;28;20076;-56
2021/06/08 00:02:49;;;;;;;2.25;2.05;;;23.50;56.90;;;;;;5036538;28;20046;-55
2021/06/08 00:05:18;;;;;;;2.40;2.17;;;23.50;56.90;;;;;;5055776;28;20048;-53
2021/06/08 00:07:46;;;;;;;2.35;2.10;;;23.50;56.90;;;;;;5052545;28;20049;-55
2021/06/08 00:10:14;;;;;;;2.45;2.25;;;23.50;56.90;;;;;;5056616;28;20076;-56
2021/06/08 00:12:41;;;;;;;2.28;2.08;;;23.50;56.90;;;;;;5055614;28;20103;-55
2021/06/08 00:15:09;;;;;;;2.80;2.35;;;23.50;56.90;;;;;;5041026;28;20049;-56
2021/06/08 00:17:36;;;;;;;2.30;1.92;;;23.50;56.90;;;;;;5053632;28;20056;-56
2021/06/08 00:20:05;;;;;;;2.35;2.15;;;23.50;56.90;;;;;;5055542;28;20106;-56
2021/06/08 00:22:33;;;;;;;2.40;2.15;;;23.50;56.90;;;;;;5043141;28;20056;-55
2021/06/08 00:25:00;;;;;;;2.50;1.80;;;23.50;56.90;;;;;;5049837;28;20049;-57
2021/06/08 00:27:28;;;;;;;2.47;2.28;;;23.50;56.90;;;;;;5055104;28;20087;-55
2021/06/08 00:29:55;;;;;;;2.58;2.38;;;23.50;56.90;;;;;;5056379;28;20056;-56
2021/06/08 00:32:22;;;;;;;2.20;2.00;;;23.50;57.00;;;;;;5055243;28;20099;-54
2021/06/08 00:34:50;;;;;;;2.40;2.10;;;23.50;57.00;;;;;;5046368;28;20068;-54
2021/06/08 00:37:17;;;;;;;2.67;2.47;;;23.50;57.00;;;;;;5047628;28;20073;-54
2021/06/08 00:39:44;;;;;;;2.70;2.38;;;23.50;57.00;;;;;;5054571;28;20048;-56
2021/06/08 00:42:12;;;;;;;2.35;2.10;;;23.50;57.00;;;;;;5050326;28;20053;-56
2021/06/08 00:44:39;;;;;;;2.28;2.08;;;23.50;57.00;;;;;;5039856;28;20057;-58
2021/06/08 00:47:07;;;;;;;3.33;2.15;;;23.50;57.00;;;;;;5043550;28;20049;-56
2021/06/08 00:49:35;;;;;;;2.58;2.28;;;23.50;57.00;;;;;;5055046;28;20040;-55
2021/06/08 00:52:03;;;;;;;2.83;2.00;;;23.50;57.00;;;;;;5052203;28;20084;-55
2021/06/08 00:54:30;;;;;;;2.40;2.20;;;23.50;57.00;;;;;;5039471;28;20052;-57
2021/06/08 00:56:59;;;;;;;2.22;2.00;;;23.40;56.90;;;;;;5054022;28;20040;-53
2021/06/08 00:59:26;;;;;;;2.53;1.92;;;23.50;57.10;;;;;;5038824;28;20099;-56
2021/06/08 01:01:53;;;;;;;3.35;2.22;;;23.50;57.10;;;;;;5037049;28;20072;-56
2021/06/08 01:04:20;;;;;;;2.97;2.20;;;23.50;57.10;;;;;;5055756;28;20057;-56
2021/06/08 01:06:48;;;;;;;2.90;2.45;;;23.50;57.10;;;;;;5044435;28;20053;-54
2021/06/08 01:09:16;;;;;;;2.33;2.10;;;23.50;57.10;;;;;;5038150;28;20438;-54
2021/06/08 01:11:43;;;;;;;2.13;1.92;;;23.50;57.10;;;;;;5037853;28;20069;-56
2021/06/08 01:14:11;;;;;;;2.85;2.08;;;23.50;57.10;;;;;;5053431;28;20063;-54
2021/06/08 01:16:39;;;;;;;2.50;2.15;;;23.40;57.00;;;;;;5052954;28;20445;-57
2021/06/08 01:19:07;;;;;;;2.50;2.30;;;23.50;57.10;;;;;;5055511;28;20052;-57
2021/06/08 01:21:35;;;;;;;2.17;1.98;;;23.50;57.10;;;;;;5055136;28;20048;-55
2021/06/08 01:24:03;;;;;;;2.47;2.05;;;23.50;57.10;;;;;;5040787;28;20072;-58
2021/06/08 01:26:31;;;;;;;1.92;1.80;;;23.40;57.00;;;;;;5049053;28;20493;-56
2021/06/08 01:29:01;;;;;;;2.40;2.17;;;23.50;57.10;;;;;;5053131;28;20099;-57
2021/06/08 01:31:31;;;;;;;2.65;2.10;;;23.40;57.10;;;;;;5043980;28;20099;-57
2021/06/08 01:33:59;;;;;;;2.47;2.10;;;23.40;57.10;;;;;;5047431;28;20057;-55
2021/06/08 01:36:32;;;;;;;3.60;2.05;;;23.40;57.10;;;;;;5053641;28;20045;-52
2021/06/08 01:39:00;;;;;;;2.35;2.15;;;23.40;57.10;;;;;;5052620;28;20080;-52
2021/06/08 01:41:27;;;;;;;2.28;2.08;;;23.40;57.10;;;;;;5053615;28;20091;-56
2021/06/08 01:43:54;;;;;;;2.47;2.28;;;23.40;57.10;;;;;;5053534;28;20045;-58
2021/06/08 01:46:22;;;;;;;2.75;2.08;;;23.40;57.10;;;;;;5053609;28;20492;-56
2021/06/08 01:48:50;;;;;;;2.20;2.00;;;23.40;57.10;;;;;;5054973;28;20102;-56
2021/06/08 01:51:40;;;;;;;2.42;2.10;;;23.40;57.10;;;;;;5049699;28;20160;-54
2021/06/08 01:54:32;;;;;;;2.25;2.05;;;23.40;57.10;;;;;;5037150;28;20049;-57
2021/06/08 01:57:06;;;;;;;2.50;2.30;;;23.40;57.10;;;;;;5046262;28;20049;-54
2021/06/08 01:59:58;;;;;;;2.58;2.38;;;23.40;57.10;;;;;;5053230;28;20049;-55
2021/06/08 02:02:45;;;;;;;2.28;2.00;;;23.40;57.70;;;;;;5042264;28;20053;-57
2021/06/08 02:05:27;;;;;;;2.30;2.10;;;23.40;57.10;;;;;;5037931;28;20049;-56
2021/06/08 02:08:27;;;;;;;2.25;2.00;;;23.40;57.10;;;;;;5052262;28;20053;-54
2021/06/08 02:11:19;;;;;;;2.15;1.85;;;23.40;57.10;;;;;;5034832;28;20468;-54
2021/06/08 02:14:17;;;;;;;2.30;2.10;;;23.40;57.10;;;;;;5036928;28;20050;-58
2021/06/08 02:16:50;;;;;;;2.03;1.83;;;23.40;57.10;;;;;;5037908;28;20045;-55
2021/06/08 02:19:21;;;;;;;2.25;2.05;;;23.40;57.20;;;;;;5052985;28;20080;-53
2021/06/08 02:21:55;;;;;;;2.63;2.42;;;23.40;57.20;;;;;;5053274;28;20048;-56
2021/06/08 02:24:24;;;;;;;;;;;23.40;57.20;;;;;;5055149;28;20040;-56
2021/06/08 02:27:08;;;;;;;2.72;2.17;;;23.40;57.20;;;;;;5068646;28;19951;-57
2021/06/08 02:29:38;;;;;;;2.20;2.00;;;23.40;57.20;;;;;;5051574;28;20045;-55
2021/06/08 02:32:07;;;;;;;2.58;2.17;;;23.40;57.30;;;;;;5051646;28;20489;-54
2021/06/08 02:34:36;;;;;;;2.20;2.00;;;23.40;57.30;;;;;;5052685;28;20048;-56
2021/06/08 02:37:04;;;;;;;2.38;2.17;;;23.40;57.30;;;;;;5052857;28;20118;-56
2021/06/08 02:39:32;;;;;;;1.90;1.80;;;23.40;57.20;;;;;;5052885;28;20385;-56
2021/06/08 02:42:00;;;;;;;3.97;1.92;;;23.40;57.20;;;;;;5035486;28;20079;-56
2021/06/08 02:44:28;;;;;;;2.05;1.83;;;23.30;57.10;;;;;;5052550;28;20049;-56
2021/06/08 02:46:56;;;;;;;2.35;2.15;;;23.40;57.30;;;;;;5052561;28;20546;-57
2021/06/08 02:49:24;;;;;;;2.13;1.92;;;23.40;57.30;;;;;;5052471;28;20049;-58
2021/06/08 02:51:53;;;;;;;2.38;2.17;;;23.40;57.20;;;;;;5052654;28;20049;-58
2021/06/08 02:54:20;;;;;;;2.25;2.03;;;23.40;57.20;;;;;;5054403;28;20049;-55
2021/06/08 02:56:48;;;;;;;2.20;2.00;;;23.40;57.30;;;;;;5038573;28;20049;-54
2021/06/08 02:59:16;;;;;;;3.10;1.95;;;23.40;57.30;;;;;;5037199;28;20049;-54
2021/06/08 03:01:51;;;;;;;2.85;2.45;;;23.30;57.20;;;;;;5037190;28;20474;-57
2021/06/08 03:04:22;;;;;;;2.95;2.20;;;23.40;57.30;;;;;;5050908;28;20045;-55
2021/06/08 03:06:57;;;;;;;2.20;2.00;;;23.40;57.30;;;;;;5041611;28;20099;-54
2021/06/08 03:09:32;;;;;;;2.80;1.65;;;23.40;57.30;;;;;;5050929;28;20052;-56
2021/06/08 03:12:04;;;;;;;2.25;2.05;;;23.40;57.30;;;;;;5050941;28;20061;-55
2021/06/08 03:14:32;;;;;;;2.17;1.90;;;23.40;57.30;;;;;;5053224;28;20424;-54
2021/06/08 03:17:01;;;;;;;2.97;2.53;;;23.40;57.80;;;;;;5053163;28;20493;-57
2021/06/08 03:19:34;;;;;;;2.53;2.00;;;23.40;57.30;;;;;;5052258;28;20080;-57
2021/06/08 03:22:09;;;;;;;2.33;2.03;;;23.30;57.10;;;;;;5052340;28;20053;-57
2021/06/08 03:24:40;;;;;;;2.28;2.08;;;23.40;57.20;;;;;;5051859;28;20127;-56
2021/06/08 03:27:09;;;;;;;2.20;2.00;;;23.40;57.20;;;;;;5041053;28;20100;-56
2021/06/08 03:29:38;;;;;;;2.53;2.17;;;23.40;57.20;;;;;;5046194;28;20111;-55
2021/06/08 03:32:07;;;;;;;2.30;2.10;;;23.40;57.20;;;;;;5052096;28;20041;-53
2021/06/08 03:34:37;;;;;;;2.70;2.05;;;23.40;57.20;;;;;;5052198;28;20095;-56
2021/06/08 03:37:05;;;;;;;2.45;2.05;;;23.40;57.20;;;;;;5053527;28;20103;-56
2021/06/08 03:39:35;;;;;;;2.35;2.08;;;23.40;57.20;;;;;;5047967;28;20045;-55
2021/06/08 03:42:04;;;;;;;2.10;1.90;;;23.40;57.10;;;;;;5039682;28;20099;-55
2021/06/08 03:44:34;;;;;;;2.40;2.10;;;23.40;57.10;;;;;;5039768;28;20042;-55
2021/06/08 03:47:02;;;;;;;2.70;2.10;;;23.40;57.10;;;;;;5040850;28;20091;-57
2021/06/08 03:49:29;;;;;;;2.15;1.98;;;23.40;57.10;;;;;;5046080;28;20041;-58
2021/06/08 03:51:57;;;;;;;1.90;1.80;;;23.40;57.10;;;;;;5055746;28;20052;-55
2021/06/08 03:54:24;;;;;;;1.85;1.75;;;23.40;57.10;;;;;;5056728;28;20049;-57
2021/06/08 03:56:54;;;;;;;2.00;1.90;;;23.50;57.10;;;;;;5054921;28;20106;-56
2021/06/08 03:59:27;;;;;;;2.58;1.90;;;23.40;57.00;;;;;;5056922;28;20048;-54
2021/06/08 04:01:55;;;;;;;3.20;2.10;;;23.50;57.10;;;;;;5057248;28;20124;-56
2021/06/08 04:04:23;;;;;;;2.00;1.80;;;23.50;57.00;;;;;;5054758;28;20049;-54
2021/06/08 04:06:51;;;;;;;2.17;1.92;;;23.50;57.00;;;;;;5055080;28;20041;-54
2021/06/08 04:09:18;;;;;;;2.13;1.85;;;23.50;57.00;;;;;;5054933;28;20129;-54
2021/06/08 04:11:51;;;;;;;2.10;1.90;;;23.50;57.00;;;;;;5055408;28;20049;-57
2021/06/08 04:14:21;;;;;;;2.08;1.88;;;23.50;56.90;;;;;;5038020;28;20049;-56
2021/06/08 04:16:49;;;;;;;2.30;2.08;;;23.50;56.90;;;;;;5039272;28;20394;-53
2021/06/08 04:19:16;;;;;;;2.00;1.80;;;23.60;56.90;;;;;;5037325;28;20056;-56
2021/06/08 04:21:48;;;;;;;2.42;1.80;;;23.60;56.80;;;;;;5054592;28;20061;-57
2021/06/08 04:24:15;;;;;;;2.35;2.00;;;23.60;56.80;;;;;;5037946;28;20107;-53
2021/06/08 04:26:42;;;;;;;1.90;1.73;;;23.60;56.70;;;;;;5055657;28;20048;-56
2021/06/08 04:29:09;;;;;;;2.13;1.92;;;23.60;56.70;;;;;;5039798;28;20049;-56
2021/06/08 04:31:37;;;;;;;2.20;2.00;;;23.70;56.70;;;;;;5052648;28;20076;-54
2021/06/08 04:34:04;;;;;;;2.67;2.03;;;23.70;56.70;;;;;;5041903;28;20115;-56
2021/06/08 04:36:31;;;;;;;2.38;2.17;;;23.70;56.50;;;;;;5050947;28;20052;-54
2021/06/08 04:38:59;;;;;;;2.28;2.08;;;23.70;56.40;;;;;;5054870;28;20607;-49
2021/06/08 04:41:27;;;;;;;2.17;1.98;;;23.80;56.40;;;;;;5045935;28;20080;-55
2021/06/08 04:43:54;;;;;;;2.40;2.08;;;23.80;56.30;;;;;;5038463;28;20467;-53
2021/06/08 04:46:21;;;;;;;2.53;2.05;;;23.80;56.30;;;;;;5048225;28;20041;-56
2021/06/08 04:48:48;;;;;;;2.13;1.92;;;23.90;56.80;;;;;;5055638;28;20489;-55
2021/06/08 04:51:15;;;;;;;2.25;1.90;;;23.90;56.10;;;;;;5055901;28;20040;-54
2021/06/08 04:53:42;;;;;;;1.98;1.88;;;23.90;56.00;;;;;;5055304;28;20099;-50
2021/06/08 04:56:10;;;;;;;1.95;1.75;;;24.00;56.00;;;;;;5054433;28;20500;-54
2021/06/08 04:58:52;;;;;;;1.70;1.60;;;23.90;55.90;;;;;;5032728;28;20053;-55
2021/06/08 05:01:34;;;;;;;2.00;1.80;;;24.00;55.80;;;;;;5051721;28;20057;-55
2021/06/08 05:04:13;;;;;;;2.50;1.77;;;24.10;55.90;;;;;;5038995;28;20555;-54
2021/06/08 05:06:45;;;;;;;2.50;2.25;;;24.10;55.80;;;;;;5038700;28;20053;-54
2021/06/08 05:09:21;;;;;;;1.92;1.77;;;24.10;55.70;;;;;;5043312;28;20485;-57
2021/06/08 05:11:56;;;;;;;2.30;2.10;;;24.10;55.60;;;;;;5053252;28;20045;-56
2021/06/08 05:14:28;;;;;;;2.00;1.77;;;24.10;55.60;;;;;;5054179;28;20502;-55
2021/06/08 05:16:56;;;;;;;2.42;2.03;;;24.10;55.50;;;;;;5054185;28;20490;-55
2021/06/08 05:19:25;;;;;;;1.92;1.75;;;24.10;55.50;;;;;;5048633;28;20053;-57
2021/06/08 05:21:53;;;;;;;1.73;1.63;;;24.20;55.50;;;;;;5043842;28;20099;-57
2021/06/08 05:24:22;;;;;;;2.03;1.83;;;24.20;55.40;;;;;;5050171;28;20045;-54
2021/06/08 05:26:51;;;;;;;2.30;2.08;;;24.20;55.50;;;;;;5041172;28;20489;-57
2021/06/08 05:29:21;;;;;;;1.88;1.73;;;24.20;55.40;;;;;;5054183;28;20041;-53
2021/06/08 05:31:49;;;;;;;1.75;1.65;;;24.20;55.40;;;;;;5055056;28;20040;-57
2021/06/08 05:34:20;;;;;;;1.85;1.75;;;24.20;55.30;;;;;;5053794;28;20117;-58
2021/06/08 05:36:47;;;;;;;2.00;1.80;;;24.20;55.30;;;;;;5053173;28;20067;-54
2021/06/08 05:39:14;;;;;;;2.10;1.90;;;24.20;55.30;;;;;;5037311;28;20084;-57
2021/06/08 05:41:41;;;;;;;2.03;1.80;;;24.30;55.30;;;;;;5036915;28;20049;-56
2021/06/08 05:44:10;;;;;;;1.95;1.70;;;24.30;55.30;;;;;;5035964;28;20131;-56
2021/06/08 05:46:38;;;;;;;2.30;1.90;;;24.30;55.30;;;;;;5053785;28;20045;-57
2021/06/08 05:49:07;;;;;;;2.25;1.80;;;24.30;55.30;;;;;;5035153;28;20103;-56
2021/06/08 05:51:36;;;;;;;2.78;1.63;;;24.30;55.30;;;;;;5037815;28;20054;-57
2021/06/08 05:54:08;;;;;;;1.98;1.80;;;24.30;55.20;;;;;;5052354;28;20064;-54
2021/06/08 05:56:37;;;;;;;2.30;2.10;;;24.30;55.20;;;;;;5037277;28;20406;-56
2021/06/08 05:59:06;;;;;;;1.90;1.80;;;24.30;55.20;;;;;;5051968;28;20053;-57
2021/06/08 06:01:34;;;;;;;2.03;1.83;;;24.30;55.10;;;;;;5053124;28;20051;-57
2021/06/08 06:04:01;;;;;;;2.00;1.80;;;24.30;55.10;;;;;;5039620;28;20072;-57
2021/06/08 06:06:29;;;;;;;3.72;2.10;;;24.30;55.10;;;;;;5042204;28;20045;-57
2021/06/08 06:08:56;;;;;;;1.83;1.60;;;24.30;55.10;;;;;;5049399;28;20087;-57
2021/06/08 06:11:24;;;;;;;2.90;2.10;;;24.30;55.10;;;;;;5042331;28;20486;-55
2021/06/08 06:13:57;;;;;;;2.10;1.90;;;24.40;55.20;;;;;;5048558;28;20524;-55
2021/06/08 06:16:25;;;;;;;2.35;2.03;;;24.30;55.10;;;;;;5042938;28;20049;-53
2021/06/08 06:18:53;;;;;;;2.05;1.80;;;24.40;55.20;;;;;;5037680;28;20136;-53
2021/06/08 06:21:20;;;;;;;2.03;1.83;;;24.40;55.10;;;;;;5044385;28;20091;-56
2021/06/08 06:23:48;;;;;;;2.63;1.92;;;24.30;55.10;;;;;;5051614;28;20077;-54
2021/06/08 06:26:17;;;;;;;2.15;1.95;;;24.40;55.10;;;;;;5047516;28;20048;-56
2021/06/08 06:28:45;;;;;;;2.08;1.80;;;24.40;55.20;;;;;;5043498;28;20052;-58
2021/06/08 06:31:12;;;;;;;3.00;2.10;;;24.40;55.10;;;;;;5047896;28;20037;-56
2021/06/08 06:33:47;;;;;;;2.15;1.95;;;24.40;55.40;;;;;;5041964;28;20045;-57
2021/06/08 06:36:15;;;;;;;2.10;1.90;;;24.40;55.10;;;;;;5052894;28;20126;-55
2021/06/08 06:38:48;;;;;;;1.73;1.63;;;24.40;55.10;;;;;;5048883;28;20076;-57
2021/06/08 06:41:17;;;;;;;2.05;1.80;;;24.40;55.10;;;;;;5038765;28;20045;-55
2021/06/08 06:43:51;;;;;;;2.22;2.03;;;24.40;55.10;;;;;;5052631;28;20539;-55
2021/06/08 06:46:19;;;;;;;1.88;1.77;;;24.40;55.10;;;;;;5052469;28;20052;-58
2021/06/08 06:48:46;;;;;;;2.10;1.90;;;24.40;55.10;;;;;;5051507;28;20045;-56
2021/06/08 06:51:15;;;;;;;1.88;1.70;;;24.40;55.10;;;;;;5037472;28;20071;-56
2021/06/08 06:53:43;;;;;;;1.70;1.60;;;24.40;55.10;;;;;;5037516;28;20111;-55
2021/06/08 06:56:11;;;;;;;2.50;2.30;;;24.40;55.00;;;;;;5052668;28;20049;-57
2021/06/08 06:58:41;;;;;;;1.88;1.70;;;24.40;55.00;;;;;;5035868;28;20054;-56
2021/06/08 07:01:09;;;;;;;1.92;1.80;;;24.40;55.00;;;;;;5053425;28;20045;-57
2021/06/08 07:03:38;;;;;;;2.08;1.88;;;24.40;55.00;;;;;;5052117;28;20052;-58
2021/06/08 07:06:05;;;;;;;2.50;2.10;;;24.40;55.00;;;;;;5044763;28;20489;-58
2021/06/08 07:08:33;;;;;;;1.95;1.75;;;24.40;55.50;;;;;;5052210;28;20554;-56
2021/06/08 07:11:00;;;;;;;2.10;1.90;;;24.40;54.90;;;;;;5051257;28;20055;-55
2021/06/08 07:13:28;;;;;;;3.33;2.10;;;24.40;54.90;;;;;;5053318;28;20084;-54
2021/06/08 07:15:55;;;;;;;2.10;1.90;;;24.40;54.90;;;;;;5052020;28;20563;-56
2021/06/08 07:18:23;;;;;;;2.10;1.77;;;24.40;54.90;;;;;;5050925;28;20084;-57
2021/06/08 07:20:51;;;;;;;2.20;2.00;;;24.40;54.90;;;;;;5052045;28;20056;-54
2021/06/08 07:23:20;;;;;;;1.63;1.52;;;24.40;54.90;;;;;;5064059;28;20098;-57
2021/06/08 07:25:50;;;;;;;1.77;1.67;;;24.40;54.90;;;;;;5047445;28;20570;-56
2021/06/08 07:28:19;;;;;;;2.05;1.77;;;24.40;54.90;;;;;;5036919;28;20045;-54
2021/06/08 07:30:49;;;;;;;1.80;1.70;;;24.40;54.90;;;;;;5045336;28;20049;-55
2021/06/08 07:33:33;;;;;;;2.00;1.80;;;24.40;54.90;;;;;;5052247;28;20045;-56
2021/06/08 07:36:41;;;;;;;2.30;1.85;;;24.40;54.80;;;;;;5041394;28;20099;-55
2021/06/08 07:39:23;;;;;;;2.03;1.67;;;24.40;54.80;;;;;;5009930;28;20053;-54
2021/06/08 07:42:10;;;;;;;2.15;1.80;;;24.40;54.90;;;;;;5009933;28;20203;-56
2021/06/08 07:44:58;;;;;;;3.28;2.10;;;24.40;54.80;;;;;;5009964;28;20439;-55
2021/06/08 07:47:31;;;;;;;2.55;1.98;;;24.40;54.80;;;;;;4992969;28;20100;-55
2021/06/08 07:50:00;;;;;;;2.00;1.67;;;24.40;54.80;;;;;;5010729;28;20050;-57
2021/06/08 07:52:28;;;;;;;1.88;1.70;;;24.40;54.80;;;;;;5009433;28;20120;-55
2021/06/08 07:54:56;;;;;;;2.30;2.10;;;24.40;54.80;;;;;;4990485;28;20094;-55
2021/06/08 07:57:24;;;;;;;2.05;1.70;;;24.40;54.80;;;;;;4990157;28;20058;-56
2021/06/08 08:00:08;;;;;;;2.20;2.00;;;24.50;54.80;;;;;;4990724;28;20141;-58
2021/06/08 08:02:36;;;;;;;1.92;1.77;;;24.40;54.80;;;;;;4990303;28;20050;-55
2021/06/08 08:05:09;;;;;;;1.75;1.65;;;24.40;54.80;;;;;;4990272;28;20082;-58
2021/06/08 08:07:38;;;;;;;1.83;1.73;;;24.50;54.80;;;;;;4990321;28;20054;-56
2021/06/08 08:10:07;;;;;;;2.17;2.00;;;24.50;54.80;;;;;;4989006;28;20109;-54
2021/06/08 08:12:36;;;;;;;2.15;1.90;;;24.50;54.80;;;;;;4990086;28;20099;-55
2021/06/08 08:15:05;;;;;;;2.13;1.88;;;24.50;54.80;;;;;;4995849;28;20115;-57
2021/06/08 08:17:33;;;;;;;2.13;1.55;;;24.50;54.80;;;;;;5010698;28;20046;-56
2021/06/08 08:20:04;;;;;;;2.13;1.90;;;24.50;54.80;;;;;;5011857;28;20112;-55
2021/06/08 08:22:31;;;;;;;1.90;1.70;;;24.50;54.80;;;;;;5012466;28;20486;-54
2021/06/08 08:24:58;;;;;;;1.83;1.73;;;24.50;54.80;;;;;;5015325;28;20049;-56
2021/06/08 08:27:26;;;;;;;2.17;1.98;;;24.50;54.70;;;;;;5014272;28;20148;-56
2021/06/08 08:29:53;;;;;;;1.85;1.75;;;24.50;54.80;;;;;;5016734;28;20061;-54
2021/06/08 08:32:22;;;;;;;2.17;1.92;;;24.50;54.70;;;;;;5016706;28;20061;-55
2021/06/08 08:34:50;;;;;;;1.98;1.70;;;24.50;54.70;;;;;;5015318;28;20053;-56
2021/06/08 08:37:17;;;;;;;2.28;1.80;;;24.50;54.70;;;;;;5015475;28;20052;-53
2021/06/08 08:39:46;;;;;;;1.98;1.77;;;24.50;54.70;;;;;;5009922;28;20082;-56
2021/06/08 08:42:13;;;;;;;1.95;1.85;;;24.50;54.70;;;;;;5005524;28;20460;-53
2021/06/08 08:44:43;;;;;;;2.40;2.20;;;24.50;54.70;;;;;;5016611;28;20375;-56
2021/06/08 08:47:10;;;;;;;2.03;1.83;;;24.50;54.80;;;;;;5010749;28;20545;-57
2021/06/08 08:49:39;;;;;;;2.03;1.90;;;24.50;54.80;;;;;;5004114;28;20054;-57
2021/06/08 08:52:07;;;;;;;2.10;1.90;;;24.50;54.80;;;;;;5012066;28;20053;-57
2021/06/08 08:54:36;;;;;;;1.67;1.58;;;24.50;54.80;;;;;;5037177;28;20106;-55
2021/06/08 08:57:04;;;;;;;2.10;1.88;;;24.50;55.10;;;;;;5052868;28;20134;-56
2021/06/08 08:59:31;;;;;;;2.25;2.05;;;24.50;54.70;;;;;;5038233;28;20048;-56
2021/06/08 09:02:00;;;;;;;2.20;2.00;;;24.50;54.70;;;;;;5038015;28;20053;-56
2021/06/08 09:04:28;;;;;;;2.40;2.00;;;24.50;54.80;;;;;;5037401;28;20136;-58
2021/06/08 09:06:55;;;;;;;1.77;1.67;;;24.60;54.80;;;;;;5042764;28;20115;-56
2021/06/08 09:09:23;;;;;;;1.98;1.77;;;24.50;54.70;;;;;;5036983;28;20053;-55
2021/06/08 09:11:51;;;;;;;4.03;1.83;;;24.50;54.70;;;;;;5053454;28;20428;-57
2021/06/08 09:14:18;;;;;;;2.05;1.70;;;24.50;54.70;;;;;;5056693;28;20044;-56
2021/06/08 09:16:46;;;;;;;2.13;1.80;;;24.60;54.80;;;;;;5039288;28;20049;-57
2021/06/08 09:19:13;;;;;;;2.13;1.88;;;24.50;55.30;;;;;;5051887;28;20130;-58
2021/06/08 09:21:43;;;;;;;1.75;1.65;;;24.60;54.80;;;;;;5055495;28;20045;-57
2021/06/08 09:24:22;;;;;;;1.80;1.65;;;24.60;54.80;;;;;;5041692;28;20049;-55
2021/06/08 09:27:04;;;;;;;1.83;1.73;;;24.60;54.80;;;;;;5053046;28;20049;-57
2021/06/08 09:29:41;;;;;;;1.90;1.80;;;24.60;54.80;;;;;;5054308;28;20045;-58
2021/06/08 09:32:14;;;;;;;2.00;1.80;;;24.60;54.80;;;;;;5038299;28;20077;-53
2021/06/08 09:34:50;;;;;;;3.28;1.80;;;24.60;54.80;;;;;;5052603;28;20072;-51
2021/06/08 09:37:34;;;;;;;2.10;1.67;;;24.60;54.80;;;;;;5070043;28;20044;-56
2021/06/08 09:40:25;;;;;;;1.83;1.73;;;24.60;54.80;;;;;;5055380;28;20048;-57
2021/06/08 09:43:10;;;;;;;1.77;1.60;;;24.60;54.70;;;;;;5036948;28;20049;-54
2021/06/08 09:45:49;;;;;;;1.73;1.63;;;24.60;54.70;;;;;;5037195;28;20047;-57
2021/06/08 09:48:17;;;;;;;2.03;1.83;;;24.60;54.70;;;;;;5038068;28;20042;-56
2021/06/08 09:50:47;;;;;;;2.13;1.92;;;24.60;55.30;;;;;;5052512;28;20084;-54
2021/06/08 09:53:20;;;;;;;2.08;1.80;;;24.60;54.60;;;;;;5036331;28;20114;-56
2021/06/08 09:56:14;;;;;;;2.00;1.80;;;24.60;55.30;;;;;;5037475;28;22279;-55
2021/06/08 09:58:48;;;;;;;2.80;2.10;;;24.60;54.60;;;;;;5037706;28;20424;-54
2021/06/08 10:01:20;;;;;;;2.05;1.80;;;24.60;54.60;;;;;;5052546;28;20070;-54
2021/06/08 10:03:58;;;;;;;2.27;2.00;;;24.60;54.60;;;;;;5054495;28;20090;-56
2021/06/08 10:06:37;;;;;;;1.75;1.50;;;24.70;54.70;;;;;;5049294;28;20431;-56
2021/06/08 10:09:07;;;;;;;2.83;2.00;;;24.70;54.60;;;;;;5047449;28;20053;-56
2021/06/08 10:11:36;;;;;;;1.83;1.73;;;24.70;54.60;;;;;;5039014;28;20098;-57
2021/06/08 10:14:14;;;;;;;2.38;2.03;;;24.70;54.60;;;;;;5051783;28;20048;-56
2021/06/08 10:16:42;;;;;;;1.83;1.58;;;24.70;54.60;;;;;;5040289;28;20118;-56
2021/06/08 10:19:11;;;;;;;1.90;1.80;;;24.70;54.60;;;;;;5052848;28;20076;-54
2021/06/08 10:21:48;;;;;;;2.05;1.85;;;24.70;54.60;;;;;;5053184;28;20060;-54
2021/06/08 10:24:29;;;;;;;2.45;1.80;;;24.70;54.60;;;;;;5052830;28;20041;-54
2021/06/08 10:26:59;;;;;;;2.97;1.73;;;24.70;54.60;;;;;;5053997;28;20056;-57
2021/06/08 10:29:34;;;;;;;1.75;1.65;;;24.70;54.60;;;;;;5051004;28;20045;-55
2021/06/08 10:32:02;;;;;;;2.45;1.88;;;24.70;54.60;;;;;;5036702;28;20053;-55
2021/06/08 10:34:40;;;;;;;1.70;1.60;;;24.70;54.60;;;;;;5038728;28;20052;-55
2021/06/08 10:37:09;;;;;;;1.95;1.80;;;24.70;54.60;;;;;;5053623;28;20041;-53
2021/06/08 10:39:36;;;;;;;2.00;1.80;;;24.70;54.60;;;;;;5052923;28;20567;-53
2021/06/08 10:42:05;;;;;;;2.15;1.95;;;24.70;54.60;;;;;;5035974;28;20044;-53
2021/06/08 10:44:34;;;;;;;2.63;1.90;;;24.80;54.60;;;;;;5069887;28;20135;-57
2021/06/08 10:47:19;;;;;;;1.92;1.75;;;24.70;54.50;;;;;;5053163;28;20407;-54
2021/06/08 10:49:46;;;;;;;1.65;1.55;;;24.70;54.60;;;;;;5036097;28;20049;-57
2021/06/08 10:52:16;;;;;;;2.10;1.90;;;24.80;54.60;;;;;;5034272;28;20049;-58
2021/06/08 10:54:47;;;;;;;1.92;1.80;;;24.80;54.60;;;;;;5052211;28;20520;-56
2021/06/08 10:57:17;;;;;;;2.25;1.80;;;24.80;54.60;;;;;;5051571;28;20059;-56
2021/06/08 10:59:50;;;;;;;1.85;1.75;;;24.80;54.60;;;;;;5052618;28;20045;-56
2021/06/08 11:02:44;;;;;;;1.88;1.70;;;24.80;54.60;;;;;;5050850;28;20083;-53
2021/06/08 11:05:14;;;;;;;2.20;2.00;;;24.80;54.60;;;;;;5035882;28;20075;-57
2021/06/08 11:07:49;;;;;;;2.75;2.10;;;24.80;54.60;;;;;;5038394;28;20079;-54
2021/06/08 11:10:25;;;;;;;1.73;1.58;;;24.80;54.60;;;;;;5035669;28;20045;-56
2021/06/08 11:13:08;;;;;;;2.30;2.00;;;24.80;54.60;;;;;;5035605;28;20045;-54
2021/06/08 11:15:36;;;;;;;1.60;1.50;;;24.80;54.60;;;;;;5037972;28;20051;-58
2021/06/08 11:18:22;;;;;;;2.47;1.88;;;24.80;54.60;;;;;;5052219;28;20132;-56
2021/06/08 11:21:10;;;;;;;1.90;1.77;;;24.80;54.60;;;;;;5050001;28;20094;-55
2021/06/08 11:23:45;;;;;;;2.00;1.80;;;24.80;54.60;;;;;;5032593;28;20049;-56
2021/06/08 11:26:15;;;;;;;2.30;2.03;;;24.80;54.60;;;;;;5051941;28;20091;-56
2021/06/08 11:28:47;;;;;;;1.95;1.63;;;24.80;54.60;;;;;;5052689;28;20036;-53
2021/06/08 11:31:23;;;;;;;2.05;1.80;;;24.80;54.60;;;;;;5049958;28;20049;-57
2021/06/08 11:34:03;;;;;;;1.88;1.65;;;24.80;54.60;;;;;;5039205;28;20049;-54
2021/06/08 11:36:32;;;;;;;2.08;1.88;;;24.80;54.60;;;;;;5051956;28;20563;-56
2021/06/08 11:39:18;;;;;;;2.10;1.90;;;24.80;54.50;;;;;;5051963;28;20094;-56
2021/06/08 11:41:55;;;;;;;2.08;1.88;;;24.80;54.50;;;;;;5050731;28;20056;-57
2021/06/08 11:44:22;;;;;;;2.20;2.00;;;24.80;54.50;;;;;;5052989;28;20044;-55
2021/06/08 11:47:01;;;;;;;2.60;1.65;;;24.80;54.50;;;;;;5051747;28;20098;-53
2021/06/08 11:49:30;;;;;;;2.00;1.80;;;24.80;54.50;;;;;;5051664;28;20489;-56
2021/06/08 11:52:13;;;;;;;2.00;1.75;;;24.90;54.50;;;;;;5051530;28;20040;-54
2021/06/08 11:54:43;;;;;;;2.00;1.80;;;24.90;55.10;;;;;;5051512;28;20051;-55
2021/06/08 11:57:31;;;;;;;2.38;2.15;;;24.90;54.50;;;;;;5051527;28;20049;-56
2021/06/08 11:59:59;;;;;;;2.85;2.00;;;24.90;54.40;;;;;;5056533;28;20060;-57
2021/06/08 12:02:42;;;;;;;1.75;1.65;;;24.90;54.40;;;;;;5049072;28;20056;-57
2021/06/08 12:05:09;;;;;;;2.08;1.88;;;24.90;54.40;;;;;;5046813;28;20049;-57
2021/06/08 12:07:48;;;;;;;1.90;1.80;;;24.90;54.40;;;;;;5053623;28;20567;-56
2021/06/08 12:10:27;;;;;;;1.75;1.65;;;24.90;54.30;;;;;;5054456;28;20185;-54
2021/06/08 12:12:55;;;;;;;1.90;1.70;;;24.90;54.30;;;;;;5047228;28;20141;-57
2021/06/08 12:15:29;;;;;;;1.92;1.80;;;24.90;54.80;;;;;;5038978;28;20045;-55
2021/06/08 12:18:08;;;;;;;1.98;1.75;;;24.90;54.20;;;;;;5048255;28;20099;-53
2021/06/08 12:20:38;;;;;;;1.85;1.70;;;24.90;54.20;;;;;;5048711;28;20050;-53
2021/06/08 12:23:07;;;;;;;1.90;1.70;;;24.90;54.20;;;;;;5046331;28;20049;-55
2021/06/08 12:25:35;;;;;;;2.05;1.85;;;25.00;54.20;;;;;;5063165;28;20434;-51
2021/06/08 12:28:10;;;;;;;1.90;1.70;;;25.00;54.20;;;;;;5066901;28;20064;-55
2021/06/08 12:30:38;;;;;;;2.40;1.90;;;25.00;54.10;;;;;;5056191;28;20053;-56
2021/06/08 12:33:06;;;;;;;2.10;1.90;;;25.00;54.10;;;;;;5056413;28;20045;-55
2021/06/08 12:35:35;;;;;;;2.25;1.63;;;25.00;54.10;;;;;;5055366;28;20041;-55
2021/06/08 12:38:18;;;;;;;1.80;1.70;;;25.00;54.00;;;;;;5054070;28;20045;-56
2021/06/08 12:40:59;;;;;;;2.00;1.80;;;25.10;54.00;;;;;;5054880;28;20057;-56
2021/06/08 12:43:28;;;;;;;1.83;1.63;;;25.10;54.00;;;;;;5054850;28;20045;-56
2021/06/08 12:45:59;;;;;;;1.98;1.85;;;25.10;54.00;;;;;;5053547;28;20045;-54
2021/06/08 12:48:27;;;;;;;2.25;2.03;;;25.10;54.00;;;;;;5051083;28;20068;-55
2021/06/08 12:50:55;;;;;;;2.00;1.80;;;25.00;54.00;;;;;;5042465;28;20122;-56
2021/06/08 12:53:27;;;;;;;2.15;1.95;;;25.00;54.00;;;;;;5052725;28;20076;-53
2021/06/08 12:55:56;;;;;;;1.67;1.58;;;25.00;54.00;;;;;;5039631;28;20053;-55
2021/06/08 12:58:34;;;;;;;1.70;1.52;;;25.00;54.00;;;;;;5038155;28;20077;-55
2021/06/08 13:01:11;;;;;;;2.22;2.03;;;25.00;54.60;;;;;;5038105;28;20049;-57
2021/06/08 13:03:41;;;;;;;2.45;1.95;;;25.00;54.00;;;;;;5039257;28;20129;-58
2021/06/08 13:06:10;;;;;;;1.65;1.55;;;25.00;54.10;;;;;;5037520;28;20068;-53
2021/06/08 13:08:44;;;;;;;2.17;1.98;;;25.00;54.10;;;;;;5047542;28;20071;-55